Time;durP1;ratioP1;P1;durP2;ratioP2;P2;SDS_P1;SDS_P2;PMS_P1;PMS_P2;Temp;Humidity;BMP_temperature;BMP_pressure;BME280_temperature;BME280_humidity;BME280_pressure;Samples;Min_cycle;Max_cycle;Signal;HPM_P1;HPM_P2
2023/05/24 00:00:11;;;;;;;5.60;2.38;;;28.90;97.00;;;;;;5046157;28;20025;-43
2023/05/24 00:02:41;;;;;;;3.78;2.05;;;28.90;97.00;;;;;;5045570;28;20029;-48
2023/05/24 00:05:09;;;;;;;6.72;2.20;;;28.80;97.00;;;;;;5045835;28;20032;-51
2023/05/24 00:07:38;;;;;;;6.78;1.80;;;28.80;97.00;;;;;;5045580;28;20044;-52
2023/05/24 00:10:05;;;;;;;10.10;1.50;;;28.80;97.00;;;;;;5045407;28;20033;-46
2023/05/24 00:12:32;;;;;;;6.07;1.30;;;28.80;97.00;;;;;;5045570;28;20049;-45
2023/05/24 00:14:59;;;;;;;6.55;1.45;;;28.80;97.00;;;;;;5045749;28;20025;-48
2023/05/24 00:17:26;;;;;;;6.43;1.40;;;28.90;97.00;;;;;;5045343;28;20314;-43
2023/05/24 00:19:53;;;;;;;5.78;1.25;;;28.80;96.90;;;;;;5045513;28;20044;-45
2023/05/24 00:22:19;;;;;;;5.55;1.70;;;28.90;96.90;;;;;;5045227;28;20221;-44
2023/05/24 00:24:47;;;;;;;4.57;1.50;;;28.90;96.90;;;;;;5045272;28;20032;-48
2023/05/24 00:27:14;;;;;;;7.28;1.77;;;28.80;96.90;;;;;;5045049;28;20060;-48
2023/05/24 00:29:41;;;;;;;6.95;2.22;;;28.90;97.00;;;;;;5045379;28;20052;-49
2023/05/24 00:32:08;;;;;;;5.32;2.17;;;28.80;97.00;;;;;;5045219;28;20079;-46
2023/05/24 00:34:34;;;;;;;7.18;2.22;;;28.90;97.00;;;;;;5045099;28;20088;-44
2023/05/24 00:37:01;;;;;;;6.55;2.00;;;28.80;96.90;;;;;;5045101;28;20111;-45
2023/05/24 00:39:27;;;;;;;7.75;2.08;;;28.80;96.90;;;;;;5044984;28;20017;-52
2023/05/24 00:41:54;;;;;;;7.25;2.00;;;28.70;96.80;;;;;;5045107;28;20053;-50
2023/05/24 00:44:20;;;;;;;8.63;2.13;;;28.70;97.00;;;;;;5048013;28;20022;-40
2023/05/24 00:46:47;;;;;;;8.00;1.92;;;28.40;96.70;;;;;;5052390;28;20325;-43
2023/05/24 00:49:14;;;;;;;8.02;2.10;;;28.40;97.30;;;;;;5054380;28;20030;-44
2023/05/24 00:51:40;;;;;;;6.35;1.90;;;28.30;97.60;;;;;;5053161;28;20344;-42
2023/05/24 00:54:07;;;;;;;9.40;2.05;;;28.20;97.60;;;;;;5064701;28;20047;-41
2023/05/24 00:56:33;;;;;;;8.13;2.10;;;28.10;97.90;;;;;;5063021;28;20047;-50
2023/05/24 00:59:00;;;;;;;8.38;6.25;;;28.10;97.80;;;;;;5053088;28;20032;-45
2023/05/24 01:01:29;;;;;;;14.98;5.70;;;27.90;97.80;;;;;;5051342;28;20105;-55
2023/05/24 01:03:56;;;;;;;7.93;2.72;;;27.90;97.90;;;;;;5057058;28;20029;-45
2023/05/24 01:06:25;;;;;;;6.40;2.92;;;27.80;97.90;;;;;;5064606;28;20029;-49
2023/05/24 01:08:55;;;;;;;9.90;4.20;;;27.90;98.10;;;;;;5054838;28;20036;-39
2023/05/24 01:11:40;;;;;;;14.68;6.10;;;27.80;98.30;;;;;;5044448;28;20345;-39
2023/05/24 01:14:28;;;;;;;11.35;2.25;;;27.70;98.10;;;;;;5050199;28;20029;-46
2023/05/24 01:17:30;;;;;;;11.57;1.75;;;27.90;98.10;;;;;;5049639;28;20056;-45
2023/05/24 01:20:07;;;;;;;8.48;1.20;;;27.70;97.90;;;;;;5044745;28;20071;-40
2023/05/24 01:23:12;;;;;;;40.25;28.23;;;27.80;98.00;;;;;;5044320;28;20037;-43
2023/05/24 01:25:56;;;;;;;37.88;25.15;;;27.70;98.10;;;;;;5044375;28;20099;-41
2023/05/24 01:28:24;;;;;;;13.27;7.72;;;27.70;98.10;;;;;;5044439;28;20096;-40
2023/05/24 01:30:51;;;;;;;13.68;4.28;;;27.70;98.10;;;;;;5044547;28;20084;-47
2023/05/24 01:33:18;;;;;;;4.30;1.70;;;27.70;98.00;;;;;;5045558;28;20037;-43
2023/05/24 01:35:45;;;;;;;8.27;1.60;;;27.60;97.90;;;;;;5053310;28;20048;-47
2023/05/24 01:38:11;;;;;;;8.30;1.77;;;27.60;97.90;;;;;;5044087;28;20102;-42
2023/05/24 01:40:39;;;;;;;9.30;1.65;;;27.70;97.90;;;;;;5044555;28;20057;-39
2023/05/24 01:43:17;;;;;;;8.15;0.80;;;27.50;97.80;;;;;;5048990;28;20033;-41
2023/05/24 01:46:08;;;;;;;4.65;1.02;;;27.60;98.00;;;;;;5052912;28;20199;-45
2023/05/24 01:49:10;;;;;;;9.00;1.05;;;27.50;97.70;;;;;;5044005;28;20291;-39
2023/05/24 01:52:01;;;;;;;8.98;0.90;;;27.60;97.80;;;;;;5051055;28;20041;-49
2023/05/24 01:54:32;;;;;;;4.90;0.60;;;27.50;97.70;;;;;;5044211;28;20021;-42
2023/05/24 01:57:02;;;;;;;7.22;1.15;;;27.50;97.70;;;;;;5046363;28;20037;-51
2023/05/24 01:59:30;;;;;;;6.60;0.90;;;27.50;97.60;;;;;;5053106;28;20071;-49
2023/05/24 02:01:57;;;;;;;5.95;0.60;;;27.50;97.70;;;;;;5044030;28;20042;-39
2023/05/24 02:04:25;;;;;;;6.20;0.70;;;27.40;97.60;;;;;;5043967;28;20104;-44
2023/05/24 02:06:52;;;;;;;5.63;0.65;;;27.50;97.70;;;;;;5050583;28;20072;-41
2023/05/24 02:09:18;;;;;;;4.18;0.45;;;27.50;97.80;;;;;;5063578;28;20033;-43
2023/05/24 02:11:45;;;;;;;24.40;22.40;;;27.50;97.50;;;;;;5063638;28;20220;-41
2023/05/24 02:14:13;;;;;;;16.20;14.73;;;27.40;97.60;;;;;;5063567;28;20021;-42
2023/05/24 02:16:41;;;;;;;9.18;8.18;;;27.60;97.70;;;;;;5063802;28;20325;-44
2023/05/24 02:19:08;;;;;;;8.48;6.95;;;27.70;97.40;;;;;;5054973;28;20217;-40
2023/05/24 02:21:35;;;;;;;6.65;5.90;;;27.70;97.00;;;;;;5052339;28;20018;-42
2023/05/24 02:24:01;;;;;;;11.50;6.70;;;27.90;96.70;;;;;;5043928;28;20051;-43
2023/05/24 02:26:28;;;;;;;11.02;4.90;;;27.90;96.60;;;;;;5043457;28;20065;-44
2023/05/24 02:28:54;;;;;;;6.07;4.80;;;27.90;96.30;;;;;;5043354;28;20018;-53
2023/05/24 02:31:21;;;;;;;7.18;4.43;;;27.90;96.10;;;;;;5043244;28;20075;-44
2023/05/24 02:33:47;;;;;;;8.70;4.43;;;28.00;96.00;;;;;;5043377;28;20201;-43
2023/05/24 02:36:14;;;;;;;5.55;3.63;;;28.00;95.80;;;;;;5043369;28;20081;-46
2023/05/24 02:38:41;;;;;;;6.50;3.60;;;28.00;95.70;;;;;;5046473;28;20100;-41
2023/05/24 02:41:10;;;;;;;8.13;3.72;;;28.10;95.60;;;;;;5051153;28;20026;-41
2023/05/24 02:43:37;;;;;;;5.40;2.88;;;28.10;95.50;;;;;;5043291;28;20041;-49
2023/05/24 02:46:03;;;;;;;7.85;3.17;;;28.00;95.40;;;;;;5043732;28;20092;-42
2023/05/24 02:48:30;;;;;;;7.35;3.00;;;28.10;95.40;;;;;;5043427;28;20036;-42
2023/05/24 02:50:56;;;;;;;6.88;2.40;;;28.10;95.30;;;;;;5043647;28;20105;-48
2023/05/24 02:53:23;;;;;;;4.95;1.92;;;28.10;95.30;;;;;;5043421;28;20021;-44
2023/05/24 02:55:49;;;;;;;5.47;1.80;;;28.10;95.10;;;;;;5043204;28;20100;-45
2023/05/24 02:58:16;;;;;;;3.47;1.70;;;28.20;95.20;;;;;;5050375;28;20025;-45
2023/05/24 03:00:42;;;;;;;3.88;1.60;;;28.10;95.10;;;;;;5043907;28;20210;-42
2023/05/24 03:03:09;;;;;;;7.22;1.30;;;28.10;95.10;;;;;;5043438;28;20041;-44
2023/05/24 03:05:35;;;;;;;5.63;1.20;;;28.20;95.20;;;;;;5043510;28;20025;-44
2023/05/24 03:08:03;;;;;;;11.38;1.80;;;28.10;95.30;;;;;;5043598;28;20037;-41
2023/05/24 03:10:29;;;;;;;3.20;1.20;;;28.10;95.30;;;;;;5050512;28;20115;-41
2023/05/24 03:12:55;;;;;;;5.18;1.35;;;28.10;95.40;;;;;;5051416;28;20052;-44
2023/05/24 03:15:22;;;;;;;2.90;0.90;;;28.10;95.40;;;;;;5057306;28;20048;-42
2023/05/24 03:17:49;;;;;;;4.03;1.15;;;28.10;95.50;;;;;;5058904;28;20024;-45
2023/05/24 03:20:16;;;;;;;4.50;1.00;;;28.20;95.50;;;;;;5053647;28;20079;-42
2023/05/24 03:22:43;;;;;;;4.53;0.90;;;28.20;95.60;;;;;;5050655;28;20113;-46
2023/05/24 03:25:09;;;;;;;6.75;1.20;;;28.20;95.70;;;;;;5046945;28;20025;-45
2023/05/24 03:27:36;;;;;;;9.57;0.90;;;28.20;95.80;;;;;;5046605;28;20336;-43
2023/05/24 03:30:05;;;;;;;8.10;1.08;;;28.20;95.80;;;;;;5046648;28;20089;-45
2023/05/24 03:32:32;;;;;;;5.30;0.98;;;28.10;95.80;;;;;;5046431;28;20034;-50
2023/05/24 03:35:00;;;;;;;3.83;0.95;;;28.20;95.80;;;;;;5046700;28;20017;-40
2023/05/24 03:37:27;;;;;;;2.80;0.90;;;28.20;95.90;;;;;;5046443;28;20026;-42
2023/05/24 03:39:54;;;;;;;6.43;0.80;;;28.20;96.10;;;;;;5050374;28;20056;-46
2023/05/24 03:42:21;;;;;;;5.75;1.23;;;28.30;96.10;;;;;;5066090;28;20024;-41
2023/05/24 03:44:47;;;;;;;6.10;0.93;;;28.20;96.10;;;;;;5053227;28;20033;-44
2023/05/24 03:47:14;;;;;;;3.88;0.82;;;28.10;96.20;;;;;;5061341;28;20032;-42
2023/05/24 03:49:40;;;;;;;3.38;0.70;;;28.30;96.30;;;;;;5055364;28;20091;-40
2023/05/24 03:52:07;;;;;;;4.35;0.90;;;28.20;96.30;;;;;;5054743;28;20037;-42
2023/05/24 03:54:33;;;;;;;6.95;1.00;;;28.30;96.30;;;;;;5057395;28;20313;-50
2023/05/24 03:57:00;;;;;;;4.13;0.90;;;28.30;96.40;;;;;;5050793;28;20048;-44
2023/05/24 03:59:27;;;;;;;5.43;1.13;;;28.30;96.30;;;;;;5045801;28;20093;-42
2023/05/24 04:01:53;;;;;;;7.70;0.88;;;28.30;96.30;;;;;;5045846;28;20029;-42
2023/05/24 04:04:20;;;;;;;5.35;0.70;;;28.20;96.30;;;;;;5045810;28;20117;-44
2023/05/24 04:06:48;;;;;;;5.20;0.82;;;28.30;96.30;;;;;;5045631;28;20026;-43
2023/05/24 04:09:15;;;;;;;5.57;0.75;;;28.20;96.30;;;;;;5045734;28;20025;-44
2023/05/24 04:11:41;;;;;;;2.60;0.60;;;28.20;96.30;;;;;;5045582;28;20158;-43
2023/05/24 04:14:10;;;;;;;8.45;0.70;;;28.30;96.50;;;;;;5045460;28;20050;-44
2023/05/24 04:16:38;;;;;;;5.18;0.70;;;28.30;96.40;;;;;;5045533;28;20029;-45
2023/05/24 04:19:05;;;;;;;4.05;0.60;;;28.30;96.40;;;;;;5045455;28;20021;-45
2023/05/24 04:21:32;;;;;;;5.55;0.65;;;28.30;96.30;;;;;;5045322;28;20029;-41
2023/05/24 04:24:00;;;;;;;2.65;0.60;;;28.30;96.30;;;;;;5045419;28;20021;-41
2023/05/24 04:26:27;;;;;;;9.32;0.93;;;28.20;96.30;;;;;;5061473;28;20052;-42
2023/05/24 04:28:53;;;;;;;3.63;0.60;;;28.20;96.30;;;;;;5065451;28;20028;-41
2023/05/24 04:31:21;;;;;;;3.47;0.65;;;28.20;96.30;;;;;;5065298;28;20017;-41
2023/05/24 04:33:48;;;;;;;6.57;0.70;;;28.20;96.40;;;;;;5065252;28;20206;-41
2023/05/24 04:36:16;;;;;;;7.30;0.63;;;28.30;96.30;;;;;;5065048;28;20032;-42
2023/05/24 04:38:44;;;;;;;3.65;0.70;;;28.20;96.30;;;;;;5058102;28;20021;-50
2023/05/24 04:41:11;;;;;;;3.15;0.70;;;28.20;96.40;;;;;;5045625;28;20249;-54
2023/05/24 04:43:37;;;;;;;4.10;0.77;;;28.20;96.40;;;;;;5047687;28;20021;-46
2023/05/24 04:46:04;;;;;;;4.68;0.73;;;28.30;96.40;;;;;;5053672;28;20033;-40
2023/05/24 04:48:30;;;;;;;4.43;0.50;;;28.30;96.40;;;;;;5055719;28;20005;-49
2023/05/24 04:50:58;;;;;;;5.05;0.88;;;28.30;96.50;;;;;;5054446;28;20028;-45
2023/05/24 04:53:25;;;;;;;4.32;0.57;;;28.30;96.40;;;;;;5054345;28;20039;-42
2023/05/24 04:55:51;;;;;;;4.40;0.50;;;28.30;96.30;;;;;;5057149;28;20138;-43
2023/05/24 04:58:18;;;;;;;3.78;0.60;;;28.20;96.30;;;;;;5046236;28;20049;-42
2023/05/24 05:00:45;;;;;;;2.58;0.40;;;28.30;96.30;;;;;;5045189;28;20025;-41
2023/05/24 05:03:11;;;;;;;6.78;0.50;;;28.20;96.30;;;;;;5044839;28;20036;-41
2023/05/24 05:05:38;;;;;;;4.07;0.60;;;28.10;96.20;;;;;;5044958;28;20105;-41
2023/05/24 05:08:06;;;;;;;7.72;0.50;;;28.10;96.20;;;;;;5044751;28;20072;-43
2023/05/24 05:10:33;;;;;;;6.07;0.63;;;28.20;96.30;;;;;;5051997;28;20048;-45
2023/05/24 05:12:59;;;;;;;3.50;0.40;;;28.10;96.30;;;;;;5062710;28;20032;-46
2023/05/24 05:15:26;;;;;;;4.65;0.82;;;28.20;96.40;;;;;;5064826;28;20027;-46
2023/05/24 05:17:53;;;;;;;2.97;0.63;;;28.20;96.50;;;;;;5064389;28;20134;-43
2023/05/24 05:20:19;;;;;;;3.03;0.30;;;28.30;96.50;;;;;;5064657;28;20201;-42
2023/05/24 05:22:49;;;;;;;4.35;0.52;;;28.30;96.60;;;;;;5064333;28;20028;-46
2023/05/24 05:25:16;;;;;;;2.75;0.68;;;28.30;96.60;;;;;;5064196;28;20048;-43
2023/05/24 05:27:43;;;;;;;3.10;0.45;;;28.20;96.60;;;;;;5064112;28;20020;-46
2023/05/24 05:30:10;;;;;;;3.10;0.68;;;28.30;96.70;;;;;;5064460;28;20041;-43
2023/05/24 05:32:36;;;;;;;4.03;0.70;;;28.20;96.70;;;;;;5063660;28;20224;-42
2023/05/24 05:35:03;;;;;;;8.25;0.88;;;28.10;96.70;;;;;;5064228;28;20241;-45
2023/05/24 05:37:30;;;;;;;9.02;1.00;;;28.30;96.70;;;;;;5064053;28;20029;-42
2023/05/24 05:39:56;;;;;;;4.60;0.98;;;28.10;96.80;;;;;;5064296;28;20319;-50
2023/05/24 05:42:23;;;;;;;6.75;1.17;;;28.30;96.80;;;;;;5063933;28;20078;-47
2023/05/24 05:44:51;;;;;;;8.15;1.20;;;28.30;96.80;;;;;;5064182;28;20233;-42
2023/05/24 05:47:17;;;;;;;7.90;1.25;;;28.30;96.80;;;;;;5063948;28;20029;-41
2023/05/24 05:49:44;;;;;;;3.85;1.10;;;28.20;96.70;;;;;;5064039;28;20029;-43
2023/05/24 05:52:10;;;;;;;8.20;1.30;;;28.30;96.80;;;;;;5063853;28;20066;-46
2023/05/24 05:54:37;;;;;;;6.03;1.25;;;28.20;96.70;;;;;;5064033;28;20020;-40
2023/05/24 05:57:04;;;;;;;6.43;1.15;;;28.30;96.60;;;;;;5063823;28;20033;-51
2023/05/24 05:59:34;;;;;;;10.77;1.48;;;28.20;96.50;;;;;;5063772;28;20067;-44
2023/05/24 06:02:02;;;;;;;4.43;1.30;;;28.20;96.50;;;;;;5063837;28;20373;-41
2023/05/24 06:04:29;;;;;;;9.80;1.50;;;28.30;96.50;;;;;;5063865;28;20044;-44
2023/05/24 06:06:55;;;;;;;3.38;1.20;;;28.30;96.40;;;;;;5063664;28;20048;-44
2023/05/24 06:09:22;;;;;;;7.45;1.70;;;28.10;96.20;;;;;;5063467;28;20021;-43
2023/05/24 06:11:48;;;;;;;6.57;1.33;;;28.20;96.20;;;;;;5063753;28;20033;-42
2023/05/24 06:14:20;;;;;;;5.60;1.50;;;28.10;96.10;;;;;;5063621;28;20047;-42
2023/05/24 06:16:47;;;;;;;4.83;1.50;;;28.10;96.00;;;;;;5063716;28;20025;-47
2023/05/24 06:19:15;;;;;;;4.38;1.23;;;28.20;96.00;;;;;;5063761;28;20294;-45
2023/05/24 06:21:46;;;;;;;4.30;1.58;;;28.20;96.00;;;;;;5063577;28;20108;-42
2023/05/24 06:24:14;;;;;;;6.55;1.52;;;28.10;96.10;;;;;;5063739;28;20088;-42
2023/05/24 06:26:42;;;;;;;5.32;1.52;;;28.10;96.10;;;;;;5063353;28;20069;-49
2023/05/24 06:29:08;;;;;;;5.55;1.33;;;28.10;96.00;;;;;;5063687;28;20024;-44
2023/05/24 06:31:35;;;;;;;8.75;1.33;;;28.00;95.90;;;;;;5063447;28;20301;-43
2023/05/24 06:34:01;;;;;;;8.32;1.35;;;28.00;95.80;;;;;;5063406;28;20033;-43
2023/05/24 06:36:29;;;;;;;9.43;1.30;;;28.10;95.80;;;;;;5063504;28;20213;-42
2023/05/24 06:38:56;;;;;;;7.13;1.50;;;28.10;95.70;;;;;;5063319;28;20064;-47
2023/05/24 06:41:22;;;;;;;5.53;1.00;;;28.20;95.80;;;;;;5063297;28;20052;-54
2023/05/24 06:43:49;;;;;;;5.13;1.10;;;28.20;95.70;;;;;;5065121;28;20028;-48
2023/05/24 06:46:15;;;;;;;6.40;1.10;;;28.00;95.60;;;;;;5067214;28;20029;-42
2023/05/24 06:48:42;;;;;;;7.80;1.10;;;28.00;95.50;;;;;;5067205;28;20013;-52
2023/05/24 06:51:08;;;;;;;5.53;1.00;;;28.00;95.40;;;;;;5067698;28;20037;-52
2023/05/24 06:53:35;;;;;;;5.15;0.70;;;28.00;95.30;;;;;;5067100;28;20021;-42
2023/05/24 06:56:01;;;;;;;4.82;0.95;;;28.10;95.30;;;;;;5067605;28;20036;-47
2023/05/24 06:58:28;;;;;;;4.25;0.85;;;28.10;95.20;;;;;;5067026;28;20063;-42
2023/05/24 07:00:54;;;;;;;5.45;0.85;;;28.00;95.10;;;;;;5067569;28;20028;-42
2023/05/24 07:03:22;;;;;;;5.40;0.73;;;28.00;95.20;;;;;;5066989;28;20217;-48
2023/05/24 07:05:48;;;;;;;4.45;0.63;;;28.00;95.30;;;;;;5067158;28;20033;-41
2023/05/24 07:08:15;;;;;;;2.40;0.60;;;28.00;95.30;;;;;;5066995;28;20024;-42
2023/05/24 07:10:42;;;;;;;5.22;1.00;;;28.10;95.30;;;;;;5066732;28;20124;-45
2023/05/24 07:13:08;;;;;;;4.05;0.98;;;28.10;95.40;;;;;;5066681;28;20361;-41
2023/05/24 07:15:35;;;;;;;4.90;0.85;;;28.10;95.40;;;;;;5067076;28;20154;-43
2023/05/24 07:18:01;;;;;;;5.30;0.80;;;28.10;95.50;;;;;;5066968;28;20094;-43
2023/05/24 07:20:28;;;;;;;5.22;0.80;;;28.00;95.40;;;;;;5066854;28;20017;-42
2023/05/24 07:22:55;;;;;;;4.80;1.00;;;28.10;95.60;;;;;;5066595;28;20027;-47
2023/05/24 07:25:23;;;;;;;4.60;0.50;;;28.10;95.40;;;;;;5066795;28;20033;-41
2023/05/24 07:27:50;;;;;;;2.95;0.47;;;28.10;95.40;;;;;;5066663;28;20363;-41
2023/05/24 07:30:17;;;;;;;6.18;1.00;;;28.10;95.30;;;;;;5066833;28;20023;-40
2023/05/24 07:32:43;;;;;;;3.55;0.80;;;28.00;95.20;;;;;;5066370;28;20135;-44
2023/05/24 07:35:15;;;;;;;6.93;0.98;;;28.00;95.30;;;;;;5066459;28;20037;-43
2023/05/24 07:37:41;;;;;;;5.97;0.93;;;28.00;95.30;;;;;;5066363;28;20389;-43
2023/05/24 07:40:11;;;;;;;4.85;0.50;;;27.90;95.20;;;;;;5066632;28;20272;-45
2023/05/24 07:42:38;;;;;;;3.97;0.75;;;28.10;95.40;;;;;;5066056;28;20021;-44
2023/05/24 07:45:07;;;;;;;7.55;0.90;;;28.00;95.30;;;;;;5066421;28;20029;-43
2023/05/24 07:47:34;;;;;;;5.05;0.68;;;28.00;95.40;;;;;;5065996;28;20036;-41
2023/05/24 07:50:02;;;;;;;7.05;0.80;;;28.00;95.40;;;;;;5066274;28;20038;-42
2023/05/24 07:52:29;;;;;;;2.95;0.90;;;27.90;95.40;;;;;;5066015;28;20032;-41
2023/05/24 07:54:55;;;;;;;7.70;1.08;;;28.00;95.40;;;;;;5065507;28;20084;-41
2023/05/24 07:57:22;;;;;;;5.03;0.63;;;27.90;95.30;;;;;;5065867;28;20190;-43
2023/05/24 07:59:49;;;;;;;3.72;0.80;;;28.00;95.20;;;;;;5066054;28;20033;-42
2023/05/24 08:02:15;;;;;;;8.15;1.02;;;28.00;95.10;;;;;;5065857;28;20089;-45
2023/05/24 08:04:42;;;;;;;2.97;0.60;;;28.00;95.00;;;;;;5065811;28;20040;-50
2023/05/24 08:07:09;;;;;;;5.95;0.77;;;28.00;95.00;;;;;;5065633;28;20059;-43
2023/05/24 08:09:37;;;;;;;5.80;0.85;;;28.00;95.00;;;;;;5065767;28;20131;-42
2023/05/24 08:12:07;;;;;;;2.92;0.40;;;27.80;94.90;;;;;;5065547;28;20075;-41
2023/05/24 08:14:33;;;;;;;4.93;0.60;;;27.90;94.90;;;;;;5065805;28;20024;-43
2023/05/24 08:17:00;;;;;;;4.03;0.40;;;27.80;94.80;;;;;;5065536;28;20035;-42
2023/05/24 08:19:27;;;;;;;6.85;0.90;;;27.80;94.90;;;;;;5065458;28;20325;-40
2023/05/24 08:22:03;;;;;;;3.92;0.40;;;27.80;94.80;;;;;;5065514;28;20062;-42
2023/05/24 08:24:31;;;;;;;4.22;0.45;;;27.90;94.90;;;;;;5065382;28;20356;-46
2023/05/24 08:26:57;;;;;;;3.92;0.50;;;27.90;94.90;;;;;;5065343;28;20087;-41
2023/05/24 08:29:24;;;;;;;6.28;0.65;;;27.90;94.90;;;;;;5065422;28;20048;-49
2023/05/24 08:31:50;;;;;;;7.43;0.75;;;27.90;95.00;;;;;;5065128;28;20017;-46
2023/05/24 08:34:17;;;;;;;5.45;0.43;;;27.90;95.00;;;;;;5065349;28;20017;-42
2023/05/24 08:36:44;;;;;;;3.40;0.22;;;27.80;95.00;;;;;;5065211;28;20056;-44
2023/05/24 08:39:11;;;;;;;9.13;0.63;;;27.90;94.90;;;;;;5065135;28;20033;-43
2023/05/24 08:41:37;;;;;;;6.97;0.40;;;27.90;94.90;;;;;;5065127;28;20033;-42
2023/05/24 08:44:07;;;;;;;6.28;0.80;;;27.90;95.00;;;;;;5060537;28;20024;-43
2023/05/24 08:46:37;;;;;;;5.55;0.50;;;27.90;95.00;;;;;;5064960;28;20212;-48
2023/05/24 08:49:04;;;;;;;6.53;0.50;;;27.80;95.00;;;;;;5065077;28;20032;-41
2023/05/24 08:51:32;;;;;;;2.13;0.35;;;27.80;95.00;;;;;;5064980;28;20021;-42
2023/05/24 08:54:00;;;;;;;5.72;0.55;;;27.70;94.80;;;;;;5064723;28;20028;-41
2023/05/24 08:56:30;;;;;;;4.43;0.40;;;27.80;95.10;;;;;;5064844;28;20020;-41
2023/05/24 08:58:56;;;;;;;4.80;0.50;;;27.80;95.10;;;;;;5064790;28;20321;-42
2023/05/24 09:01:24;;;;;;;8.02;0.40;;;27.90;95.30;;;;;;5055755;28;20033;-41
2023/05/24 09:03:52;;;;;;;7.05;0.63;;;27.80;95.20;;;;;;5044649;28;20335;-43
2023/05/24 09:06:19;;;;;;;2.90;0.40;;;27.90;95.30;;;;;;5043878;28;20321;-42
2023/05/24 09:08:48;;;;;;;7.00;0.70;;;27.90;95.40;;;;;;5044583;28;20024;-42
2023/05/24 09:11:15;;;;;;;3.95;0.60;;;27.90;95.50;;;;;;5044480;28;20057;-51
2023/05/24 09:13:44;;;;;;;5.22;0.73;;;27.90;95.40;;;;;;5044556;28;20031;-45
2023/05/24 09:16:11;;;;;;;4.85;0.70;;;27.90;95.50;;;;;;5044986;28;20209;-43
2023/05/24 09:18:39;;;;;;;3.13;0.50;;;27.80;95.50;;;;;;5044421;28;20033;-48
2023/05/24 09:21:07;;;;;;;3.90;0.50;;;27.90;95.60;;;;;;5044887;28;20034;-41
2023/05/24 09:23:34;;;;;;;3.95;0.40;;;27.90;95.50;;;;;;5044668;28;20085;-42
2023/05/24 09:26:07;;;;;;;3.85;0.45;;;27.90;95.60;;;;;;5044713;28;20341;-42
2023/05/24 09:28:33;;;;;;;5.15;0.70;;;28.00;95.70;;;;;;5044336;28;20306;-42
2023/05/24 09:31:02;;;;;;;5.70;0.63;;;28.00;95.80;;;;;;5044517;28;20037;-43
2023/05/24 09:33:31;;;;;;;6.68;0.73;;;28.00;95.80;;;;;;5044225;28;20045;-45
2023/05/24 09:35:59;;;;;;;5.63;0.80;;;27.90;95.80;;;;;;5044702;28;20033;-47
2023/05/24 09:38:26;;;;;;;4.68;0.75;;;28.00;95.90;;;;;;5044235;28;20041;-45
2023/05/24 09:41:07;;;;;;;4.68;0.57;;;27.90;95.90;;;;;;5044647;28;20364;-42
2023/05/24 09:43:45;;;;;;;9.93;0.82;;;27.90;95.90;;;;;;5043839;28;20040;-45
2023/05/24 09:46:17;;;;;;;5.80;0.60;;;27.90;95.90;;;;;;5044472;28;20018;-42
2023/05/24 09:49:02;;;;;;;8.82;0.60;;;27.90;96.10;;;;;;5044172;28;20033;-48
2023/05/24 09:51:29;;;;;;;9.95;0.80;;;27.90;95.90;;;;;;5043915;28;20325;-47
2023/05/24 09:54:02;;;;;;;5.57;1.00;;;28.00;95.90;;;;;;5043695;28;20029;-51
2023/05/24 09:56:29;;;;;;;6.40;0.90;;;27.90;95.90;;;;;;5043859;28;20028;-41
2023/05/24 09:58:57;;;;;;;6.03;0.82;;;27.90;96.00;;;;;;5043811;28;20056;-42
2023/05/24 10:01:25;;;;;;;4.68;0.57;;;27.90;95.80;;;;;;5043697;28;20096;-42
2023/05/24 10:03:56;;;;;;;5.95;0.95;;;28.00;95.90;;;;;;5043729;28;20391;-39
2023/05/24 10:06:23;;;;;;;10.60;1.05;;;27.90;95.80;;;;;;5044022;28;20033;-40
2023/05/24 10:08:51;;;;;;;4.38;0.63;;;27.90;95.80;;;;;;5043583;28;20099;-42
2023/05/24 10:11:18;;;;;;;5.68;0.70;;;27.90;95.80;;;;;;5043687;28;20092;-42
2023/05/24 10:13:45;;;;;;;5.68;0.52;;;28.00;95.80;;;;;;5043717;28;20089;-45
2023/05/24 10:16:12;;;;;;;5.47;0.55;;;28.00;95.80;;;;;;5044098;28;20034;-42
2023/05/24 10:18:38;;;;;;;5.32;0.60;;;28.00;95.80;;;;;;5047040;28;20025;-42
2023/05/24 10:21:09;;;;;;;6.45;0.80;;;27.90;95.60;;;;;;5048263;28;20041;-41
2023/05/24 10:23:41;;;;;;;8.73;0.55;;;27.80;95.60;;;;;;5047667;28;20028;-40
2023/05/24 10:26:10;;;;;;;7.40;0.75;;;27.90;95.70;;;;;;5048150;28;20064;-48
2023/05/24 10:28:54;;;;;;;5.93;0.68;;;28.00;95.70;;;;;;5047600;28;20021;-46
2023/05/24 10:31:38;;;;;;;7.05;1.00;;;27.90;95.60;;;;;;5048448;28;20194;-49
2023/05/24 10:34:05;;;;;;;8.00;0.80;;;28.00;95.60;;;;;;5067423;28;20055;-40
2023/05/24 10:36:33;;;;;;;6.13;0.80;;;28.00;95.50;;;;;;5067485;28;20033;-49
2023/05/24 10:38:59;;;;;;;11.25;1.30;;;27.90;95.50;;;;;;5067529;28;20025;-48
2023/05/24 10:41:26;;;;;;;7.20;0.93;;;27.90;95.70;;;;;;5067228;28;20032;-41
2023/05/24 10:43:56;;;;;;;5.88;0.82;;;27.90;95.60;;;;;;5067383;28;20228;-41
2023/05/24 10:46:23;;;;;;;10.02;1.23;;;27.90;95.70;;;;;;5066566;28;20255;-43
2023/05/24 10:49:00;;;;;;;7.13;0.93;;;27.90;95.70;;;;;;5066879;28;20029;-42
2023/05/24 10:51:33;;;;;;;8.02;1.20;;;27.80;95.70;;;;;;5047253;28;20022;-41
2023/05/24 10:54:20;;;;;;;9.25;1.80;;;27.80;95.80;;;;;;5046973;28;20022;-43
2023/05/24 10:56:49;;;;;;;7.68;1.80;;;27.80;95.90;;;;;;5047115;28;20036;-40
2023/05/24 10:59:44;;;;;;;9.32;2.25;;;27.80;95.90;;;;;;5047029;28;20044;-41
2023/05/24 11:02:15;;;;;;;8.05;1.70;;;27.80;95.90;;;;;;5046701;28;20109;-44
2023/05/24 11:04:45;;;;;;;7.35;1.80;;;27.80;95.90;;;;;;5046951;28;20046;-51
2023/05/24 11:07:14;;;;;;;11.77;1.52;;;27.80;96.00;;;;;;5046908;28;20029;-41
2023/05/24 11:09:45;;;;;;;9.13;1.80;;;27.80;96.00;;;;;;5046616;28;20045;-42
2023/05/24 11:12:22;;;;;;;9.43;2.25;;;27.80;96.10;;;;;;5046907;28;20013;-42
2023/05/24 11:14:57;;;;;;;7.97;1.77;;;27.80;96.10;;;;;;5046963;28;20040;-41
2023/05/24 11:17:24;;;;;;;8.00;1.60;;;27.80;96.20;;;;;;5046276;28;20237;-41
2023/05/24 11:19:53;;;;;;;8.48;1.35;;;27.80;96.20;;;;;;5046869;28;20041;-43
2023/05/24 11:22:21;;;;;;;10.95;1.63;;;27.80;96.20;;;;;;5046695;28;20036;-44
2023/05/24 11:24:47;;;;;;;7.32;1.30;;;27.90;96.30;;;;;;5046787;28;20163;-43
2023/05/24 11:27:14;;;;;;;9.18;1.23;;;27.80;96.30;;;;;;5046459;28;20025;-42
2023/05/24 11:29:47;;;;;;;8.63;1.55;;;27.90;96.40;;;;;;5045844;28;20360;-41
2023/05/24 11:32:19;;;;;;;9.50;4.55;;;27.90;96.30;;;;;;5062490;28;20035;-42
2023/05/24 11:34:49;;;;;;;10.07;3.15;;;27.90;96.40;;;;;;5046537;28;20198;-45
2023/05/24 11:37:16;;;;;;;9.68;5.40;;;28.00;96.40;;;;;;5046215;28;20155;-42
2023/05/24 11:39:43;;;;;;;9.90;4.40;;;27.90;96.30;;;;;;5046480;28;20072;-41
2023/05/24 11:42:09;;;;;;;11.63;4.50;;;27.80;96.30;;;;;;5046391;28;20036;-42
2023/05/24 11:44:36;;;;;;;9.55;4.90;;;27.90;96.40;;;;;;5046193;28;20044;-43
2023/05/24 11:47:07;;;;;;;13.32;4.07;;;27.80;96.30;;;;;;5046399;28;20035;-47
2023/05/24 11:49:34;;;;;;;11.32;4.30;;;27.90;96.30;;;;;;5046234;28;20100;-40
2023/05/24 11:52:01;;;;;;;9.00;4.20;;;27.90;96.40;;;;;;5045973;28;20221;-43
2023/05/24 11:54:29;;;;;;;10.30;5.00;;;27.90;96.40;;;;;;5046143;28;20089;-48
2023/05/24 11:56:55;;;;;;;14.32;6.25;;;27.80;96.40;;;;;;5046063;28;20041;-49
2023/05/24 11:59:27;;;;;;;15.45;7.97;;;28.00;96.50;;;;;;5045906;28;20354;-43
2023/05/24 12:02:02;;;;;;;11.48;7.15;;;27.90;96.60;;;;;;5046262;28;20258;-43
2023/05/24 12:04:29;;;;;;;18.00;7.32;;;28.00;96.70;;;;;;5050560;28;20033;-42
2023/05/24 12:06:56;;;;;;;14.00;5.93;;;28.00;96.70;;;;;;5065760;28;20028;-43
2023/05/24 12:09:23;;;;;;;11.00;4.70;;;27.90;96.70;;;;;;5065690;28;20265;-48
2023/05/24 12:11:51;;;;;;;7.22;3.35;;;28.00;96.70;;;;;;5065572;28;20033;-51
2023/05/24 12:14:22;;;;;;;12.57;3.50;;;28.00;96.80;;;;;;5065709;28;20285;-43
2023/05/24 12:16:49;;;;;;;7.82;3.30;;;28.00;96.80;;;;;;5065601;28;20037;-41
2023/05/24 12:19:28;;;;;;;9.50;3.40;;;28.00;96.90;;;;;;5065483;28;20028;-48
2023/05/24 12:21:58;;;;;;;8.25;3.30;;;28.10;97.00;;;;;;5065506;28;20029;-49
2023/05/24 12:24:26;;;;;;;6.28;3.60;;;28.00;97.10;;;;;;5065547;28;20031;-53
2023/05/24 12:26:59;;;;;;;6.40;3.60;;;28.10;97.30;;;;;;5065338;28;20075;-41
2023/05/24 12:29:25;;;;;;;8.27;3.63;;;28.20;97.40;;;;;;5065452;28;20025;-41
2023/05/24 12:31:53;;;;;;;5.78;3.20;;;28.20;97.40;;;;;;5065423;28;20296;-42
2023/05/24 12:34:20;;;;;;;12.32;6.15;;;28.30;97.60;;;;;;5065455;28;20023;-42
2023/05/24 12:36:47;;;;;;;12.45;6.25;;;28.20;97.50;;;;;;5065447;28;20052;-45
2023/05/24 12:39:36;;;;;;;12.57;4.93;;;28.20;97.60;;;;;;5065070;28;20108;-43
2023/05/24 12:42:03;;;;;;;11.73;4.40;;;28.40;97.60;;;;;;5064047;28;20084;-42
2023/05/24 12:44:37;;;;;;;23.85;4.72;;;28.40;97.70;;;;;;5065183;28;20036;-44
2023/05/24 12:47:07;;;;;;;11.20;3.50;;;28.40;97.70;;;;;;5064941;28;20023;-41
2023/05/24 12:49:34;;;;;;;17.65;3.30;;;28.40;97.80;;;;;;5065103;28;20130;-45
2023/05/24 12:52:00;;;;;;;7.82;2.55;;;28.30;97.90;;;;;;5064857;28;20024;-44